Time;durP1;ratioP1;P1;durP2;ratioP2;P2;SDS_P1;SDS_P2;PMS_P1;PMS_P2;Temp;Humidity;BMP_temperature;BMP_pressure;BME280_temperature;BME280_humidity;BME280_pressure;Samples;Min_cycle;Max_cycle;Signal;HPM_P1;HPM_P2
2021/12/11 00:01:54;;;;;;;36.70;20.08;;;;;;;;;;5135260;27;20479;-78
2021/12/11 00:04:31;;;;;;;35.05;20.85;;;;;;;;;;5116870;27;20043;-79
2021/12/11 00:07:02;;;;;;;43.88;23.50;;;;;;;;;;5111269;28;20067;-78
2021/12/11 00:09:48;;;;;;;45.03;25.33;;;;;;;;;;5123452;27;20039;-79
2021/12/11 00:12:16;;;;;;;52.25;27.52;;;;;;;;;;5119964;27;20123;-79
2021/12/11 00:14:44;;;;;;;49.40;25.75;;;;;;;;;;5114492;28;20048;-80
2021/12/11 00:17:11;;;;;;;42.53;22.45;;;;;;;;;;5114587;27;20047;-78
2021/12/11 00:19:39;;;;;;;38.25;20.85;;;;;;;;;;5120058;27;20043;-80
2021/12/11 00:22:16;;;;;;;40.05;21.75;;;;;;;;;;5095817;27;20047;-79
2021/12/11 00:24:42;;;;;;;34.95;20.02;;;;;;;;;;5128175;27;20119;-79
2021/12/11 00:27:12;;;;;;;33.85;20.13;;;;;;;;;;5126442;27;20051;-78
2021/12/11 00:29:39;;;;;;;31.90;19.15;;;;;;;;;;5112349;28;20147;-80
2021/12/11 00:32:08;;;;;;;36.40;19.92;;;;;;;;;;5127109;27;20086;-80
2021/12/11 00:34:35;;;;;;;30.58;18.70;;;;;;;;;;5114451;27;20042;-79
2021/12/11 00:37:03;;;;;;;46.28;23.95;;;;;;;;;;5113654;27;20075;-78
2021/12/11 00:39:30;;;;;;;37.47;21.45;;;;;;;;;;5129586;27;20091;-78
2021/12/11 00:42:00;;;;;;;36.47;21.42;;;;;;;;;;5131235;27;20035;-79
2021/12/11 00:44:36;;;;;;;36.40;21.73;;;;;;;;;;5132124;27;20035;-79
2021/12/11 00:47:11;;;;;;;40.22;23.63;;;;;;;;;;5134423;27;20050;-79
2021/12/11 00:49:44;;;;;;;37.10;24.42;;;;;;;;;;5130625;27;20496;-78
2021/12/11 00:52:10;;;;;;;40.30;22.88;;;;;;;;;;5132185;27;20043;-78
2021/12/11 00:54:41;;;;;;;40.45;21.33;;;;;;;;;;5114330;27;20043;-79
2021/12/11 00:57:09;;;;;;;31.83;19.77;;;;;;;;;;5129973;27;20047;-77
2021/12/11 00:59:35;;;;;;;33.30;19.10;;;;;;;;;;5115034;27;20147;-78
2021/12/11 01:02:03;;;;;;;32.85;18.08;;;;;;;;;;5134074;27;20487;-78
2021/12/11 01:04:31;;;;;;;31.10;18.50;;;;;;;;;;5128615;27;20168;-79
2021/12/11 01:06:59;;;;;;;28.55;17.65;;;;;;;;;;5094955;28;20052;-79
2021/12/11 01:09:30;;;;;;;27.13;17.55;;;;;;;;;;5122599;27;20050;-78
2021/12/11 01:12:03;;;;;;;30.83;17.27;;;;;;;;;;5130069;27;20035;-78
2021/12/11 01:14:38;;;;;;;29.33;17.92;;;;;;;;;;5115124;27;20074;-78
2021/12/11 01:17:11;;;;;;;31.95;17.20;;;;;;;;;;5113631;27;20469;-79
2021/12/11 01:19:39;;;;;;;30.70;19.40;;;;;;;;;;5113968;27;20655;-80
2021/12/11 01:22:23;;;;;;;32.40;19.67;;;;;;;;;;5096164;27;20084;-78
2021/12/11 01:24:52;;;;;;;33.58;19.58;;;;;;;;;;5129442;27;20047;-80
2021/12/11 01:27:21;;;;;;;35.05;20.77;;;;;;;;;;5121369;27;20044;-78
2021/12/11 01:29:50;;;;;;;38.28;20.73;;;;;;;;;;5108699;28;20040;-78
2021/12/11 01:32:16;;;;;;;36.30;19.77;;;;;;;;;;5094675;28;20047;-78
2021/12/11 01:34:43;;;;;;;35.28;20.40;;;;;;;;;;5106391;28;20050;-78
2021/12/11 01:37:09;;;;;;;34.15;21.10;;;;;;;;;;5108403;28;20178;-79
2021/12/11 01:39:37;;;;;;;35.55;19.75;;;;;;;;;;5100949;28;20433;-81
2021/12/11 01:42:23;;;;;;;35.95;19.27;;;;;;;;;;5133314;27;20078;-82
2021/12/11 01:44:50;;;;;;;31.13;18.15;;;;;;;;;;5090185;28;20047;-78
2021/12/11 01:47:28;;;;;;;34.00;19.30;;;;;;;;;;5125044;28;20114;-79
2021/12/11 01:49:56;;;;;;;29.77;18.60;;;;;;;;;;5115050;28;20035;-80
2021/12/11 01:52:34;;;;;;;35.75;19.98;;;;;;;;;;5128554;28;20043;-77
2021/12/11 01:55:01;;;;;;;31.35;19.33;;;;;;;;;;5113039;28;20605;-78
2021/12/11 01:57:31;;;;;;;29.08;19.20;;;;;;;;;;5131261;28;20111;-79
2021/12/11 02:00:00;;;;;;;35.60;19.77;;;;;;;;;;5110976;28;20063;-79
2021/12/11 02:02:30;;;;;;;38.90;21.08;;;;;;;;;;5104411;28;20428;-79
2021/12/11 02:04:56;;;;;;;31.02;18.88;;;;;;;;;;5113608;28;20563;-78
2021/12/11 02:07:28;;;;;;;29.92;18.63;;;;;;;;;;5131600;27;20143;-78
2021/12/11 02:09:59;;;;;;;32.00;19.08;;;;;;;;;;5099320;28;20468;-79
2021/12/11 02:12:38;;;;;;;30.33;19.35;;;;;;;;;;5116402;28;20596;-77
2021/12/11 02:15:10;;;;;;;28.60;17.90;;;;;;;;;;5094973;28;20132;-77
2021/12/11 02:17:46;;;;;;;37.42;21.17;;;;;;;;;;5107662;28;20046;-79
2021/12/11 02:20:14;;;;;;;36.97;21.55;;;;;;;;;;5115662;28;20295;-78
2021/12/11 02:22:46;;;;;;;34.13;20.25;;;;;;;;;;5115362;28;20039;-79
2021/12/11 02:25:15;;;;;;;32.50;19.50;;;;;;;;;;5128928;28;20083;-79
2021/12/11 02:27:47;;;;;;;34.70;19.65;;;;;;;;;;5112583;28;20050;-79
2021/12/11 02:30:20;;;;;;;34.97;20.55;;;;;;;;;;5127717;28;20082;-78
2021/12/11 02:33:06;;;;;;;32.17;19.52;;;;;;;;;;5112273;28;20042;-78
2021/12/11 02:35:33;;;;;;;36.33;19.25;;;;;;;;;;5112530;28;20040;-78
2021/12/11 02:38:19;;;;;;;35.47;20.00;;;;;;;;;;5099239;28;20067;-79
2021/12/11 02:40:50;;;;;;;36.13;19.38;;;;;;;;;;5127170;28;20129;-79
2021/12/11 02:43:26;;;;;;;38.53;21.50;;;;;;;;;;5128967;28;20070;-79
2021/12/11 02:46:06;;;;;;;40.92;20.25;;;;;;;;;;5107609;27;20035;-78
2021/12/11 02:48:35;;;;;;;40.55;21.38;;;;;;;;;;5112959;28;20035;-78
2021/12/11 02:51:08;;;;;;;36.78;20.38;;;;;;;;;;5098141;28;20130;-78
2021/12/11 02:53:36;;;;;;;38.65;22.38;;;;;;;;;;5106046;27;20114;-78
2021/12/11 02:56:08;;;;;;;44.10;23.00;;;;;;;;;;5124583;27;20031;-79
2021/12/11 02:58:35;;;;;;;39.33;22.00;;;;;;;;;;5122198;27;20668;-77
2021/12/11 03:01:06;;;;;;;40.35;22.52;;;;;;;;;;5103321;27;20043;-78
2021/12/11 03:03:37;;;;;;;37.08;19.90;;;;;;;;;;5115486;27;20043;-79
2021/12/11 03:06:10;;;;;;;;;;;;;;;;;;5131348;27;20039;-77
2021/12/11 03:08:36;;;;;;;41.45;22.17;;;;;;;;;;5135829;27;19930;-78
2021/12/11 03:11:08;;;;;;;44.95;22.50;;;;;;;;;;5133495;27;20122;-78
2021/12/11 03:13:37;;;;;;;37.72;22.10;;;;;;;;;;5126864;27;20043;-78
2021/12/11 03:16:03;;;;;;;42.92;24.15;;;;;;;;;;5097614;27;20161;-79
2021/12/11 03:18:30;;;;;;;37.40;22.00;;;;;;;;;;5105582;27;20047;-78
2021/12/11 03:20:56;;;;;;;40.90;22.83;;;;;;;;;;5136169;27;20482;-79
2021/12/11 03:23:22;;;;;;;47.05;25.45;;;;;;;;;;5126876;27;20039;-79
2021/12/11 03:25:49;;;;;;;47.25;25.42;;;;;;;;;;5103054;27;20506;-78
2021/12/11 03:28:16;;;;;;;53.10;25.33;;;;;;;;;;5127235;27;20047;-78
2021/12/11 03:30:44;;;;;;;40.88;22.55;;;;;;;;;;5123726;27;20059;-78
2021/12/11 03:33:12;;;;;;;46.85;24.23;;;;;;;;;;5120519;27;20095;-78
2021/12/11 03:35:39;;;;;;;46.95;24.95;;;;;;;;;;5132127;27;20126;-79
2021/12/11 03:38:05;;;;;;;45.33;24.58;;;;;;;;;;5119967;27;20071;-79
2021/12/11 03:40:32;;;;;;;44.95;23.48;;;;;;;;;;5135741;27;20050;-78
2021/12/11 03:43:00;;;;;;;44.28;24.50;;;;;;;;;;5112156;28;20094;-82
2021/12/11 03:45:28;;;;;;;39.55;23.30;;;;;;;;;;5114995;28;20044;-78
2021/12/11 03:48:00;;;;;;;40.15;24.02;;;;;;;;;;5129246;27;20527;-78
2021/12/11 03:50:29;;;;;;;46.10;24.38;;;;;;;;;;5119642;27;20068;-79
2021/12/11 03:52:56;;;;;;;43.72;22.70;;;;;;;;;;5131326;27;20054;-77
2021/12/11 03:55:25;;;;;;;43.05;23.50;;;;;;;;;;5114303;28;20039;-78
2021/12/11 03:57:57;;;;;;;39.13;22.25;;;;;;;;;;5122226;27;20078;-77
2021/12/11 04:00:25;;;;;;;45.78;22.10;;;;;;;;;;5104500;28;20075;-78
2021/12/11 04:02:53;;;;;;;41.97;23.17;;;;;;;;;;5110562;27;20031;-79
2021/12/11 04:05:21;;;;;;;36.78;20.15;;;;;;;;;;5133744;27;20039;-78
2021/12/11 04:07:48;;;;;;;39.15;21.73;;;;;;;;;;5111646;28;20040;-78
2021/12/11 04:10:16;;;;;;;39.75;22.02;;;;;;;;;;5114406;28;20043;-78
2021/12/11 04:12:43;;;;;;;40.20;22.52;;;;;;;;;;5118051;27;20035;-79
2021/12/11 04:15:10;;;;;;;39.72;21.35;;;;;;;;;;5132603;27;20122;-77
2021/12/11 04:17:37;;;;;;;40.15;22.40;;;;;;;;;;5127763;27;20111;-79
2021/12/11 04:20:07;;;;;;;39.35;23.02;;;;;;;;;;5095330;28;20109;-77
2021/12/11 04:22:33;;;;;;;43.85;23.98;;;;;;;;;;5128599;27;20042;-77
2021/12/11 04:25:00;;;;;;;42.83;23.95;;;;;;;;;;5095970;28;20115;-78
2021/12/11 04:27:27;;;;;;;35.28;21.27;;;;;;;;;;5102310;27;20092;-77
2021/12/11 04:29:54;;;;;;;39.80;22.95;;;;;;;;;;5085462;28;20039;-78
2021/12/11 04:32:34;;;;;;;39.13;22.23;;;;;;;;;;5095487;28;20046;-78
2021/12/11 04:35:01;;;;;;;35.45;21.67;;;;;;;;;;5113392;28;20071;-78
2021/12/11 04:37:30;;;;;;;39.00;22.27;;;;;;;;;;5095765;28;20055;-78
2021/12/11 04:40:01;;;;;;;40.22;22.60;;;;;;;;;;5095545;28;20500;-78
2021/12/11 04:45:00;;;;;;;39.47;21.65;;;;;;;;;;5127517;27;19995;-78
2021/12/11 04:47:37;;;;;;;36.78;21.80;;;;;;;;;;5116342;27;20053;-78
2021/12/11 04:50:10;;;;;;;37.75;21.42;;;;;;;;;;5127409;27;20047;-79
2021/12/11 04:52:54;;;;;;;46.17;23.08;;;;;;;;;;5125273;27;20042;-78
2021/12/11 04:58:08;;;;;;;46.78;23.52;;;;;;;;;;5130062;27;20085;-80
2021/12/11 05:11:44;;;;;;;43.00;23.58;;;;;;;;;;5128304;27;21894;-79
2021/12/11 05:14:12;;;;;;;42.05;23.88;;;;;;;;;;5120825;27;20081;-79
2021/12/11 05:16:38;;;;;;;43.90;23.92;;;;;;;;;;5115668;27;20134;-80
2021/12/11 05:19:05;;;;;;;55.20;26.50;;;;;;;;;;5123208;27;20158;-78
2021/12/11 05:21:31;;;;;;;51.72;24.70;;;;;;;;;;5123491;27;20031;-78
2021/12/11 05:23:57;;;;;;;51.95;26.10;;;;;;;;;;5105531;27;20080;-77
2021/12/11 05:26:23;;;;;;;48.15;24.83;;;;;;;;;;5116731;27;20046;-78
2021/12/11 05:28:50;;;;;;;42.70;23.52;;;;;;;;;;5117954;27;20051;-79
2021/12/11 05:31:16;;;;;;;40.58;22.98;;;;;;;;;;5101897;28;20123;-78
2021/12/11 05:33:43;;;;;;;43.55;23.58;;;;;;;;;;5094908;28;20043;-81
2021/12/11 05:36:11;;;;;;;41.95;21.88;;;;;;;;;;5112869;28;20416;-79
2021/12/11 05:38:39;;;;;;;37.83;22.52;;;;;;;;;;5094873;28;20092;-77
2021/12/11 05:41:06;;;;;;;41.05;22.17;;;;;;;;;;5119175;27;20043;-78
2021/12/11 05:43:33;;;;;;;42.50;23.80;;;;;;;;;;5131943;27;21511;-77
2021/12/11 05:45:59;;;;;;;41.58;23.23;;;;;;;;;;5131969;28;20082;-76
2021/12/11 05:48:25;;;;;;;39.40;23.02;;;;;;;;;;5113473;28;20043;-80
2021/12/11 05:50:53;;;;;;;38.67;21.45;;;;;;;;;;5114078;28;20088;-79
2021/12/11 05:53:20;;;;;;;38.13;22.58;;;;;;;;;;5109348;28;20122;-79
2021/12/11 05:55:48;;;;;;;37.20;22.00;;;;;;;;;;5121128;28;20045;-78
2021/12/11 05:58:22;;;;;;;40.20;21.98;;;;;;;;;;5132472;28;20078;-78
2021/12/11 06:00:49;;;;;;;36.42;20.70;;;;;;;;;;5129834;28;20396;-77
2021/12/11 06:03:18;;;;;;;38.33;21.02;;;;;;;;;;5121244;28;20561;-78
2021/12/11 06:05:45;;;;;;;39.90;23.00;;;;;;;;;;5120897;28;20050;-79
2021/12/11 06:08:11;;;;;;;37.47;22.17;;;;;;;;;;5112841;28;20047;-78
2021/12/11 06:10:39;;;;;;;38.63;21.48;;;;;;;;;;5118414;28;20408;-78
2021/12/11 06:13:06;;;;;;;38.22;20.88;;;;;;;;;;5133187;28;20046;-78
2021/12/11 06:15:32;;;;;;;39.38;22.85;;;;;;;;;;5132448;28;20124;-78
2021/12/11 06:18:02;;;;;;;36.28;22.15;;;;;;;;;;5125500;28;20533;-79
2021/12/11 06:20:31;;;;;;;38.88;22.52;;;;;;;;;;5116845;27;20059;-77
2021/12/11 06:22:57;;;;;;;35.13;21.60;;;;;;;;;;5102245;27;20039;-78
2021/12/11 06:25:27;;;;;;;40.90;23.10;;;;;;;;;;5116191;27;20087;-78
2021/12/11 06:27:53;;;;;;;45.00;24.17;;;;;;;;;;5112947;28;20048;-78
2021/12/11 06:30:21;;;;;;;42.70;23.70;;;;;;;;;;5124025;27;20054;-78
2021/12/11 06:32:48;;;;;;;42.33;23.38;;;;;;;;;;5101921;28;20066;-77
2021/12/11 06:35:18;;;;;;;40.45;22.58;;;;;;;;;;5103398;28;20044;-78
2021/12/11 06:37:44;;;;;;;41.17;22.88;;;;;;;;;;5127230;27;20133;-78
2021/12/11 06:40:10;;;;;;;42.28;23.65;;;;;;;;;;5114438;28;20031;-77
2021/12/11 06:42:37;;;;;;;40.05;22.98;;;;;;;;;;5131868;27;20043;-78
2021/12/11 06:45:03;;;;;;;39.17;23.00;;;;;;;;;;5100280;27;20047;-77
2021/12/11 06:47:30;;;;;;;37.60;22.08;;;;;;;;;;5106076;27;20086;-77
2021/12/11 06:49:56;;;;;;;38.72;22.17;;;;;;;;;;5116781;27;20043;-76
2021/12/11 06:52:24;;;;;;;44.90;23.27;;;;;;;;;;5097320;28;20442;-78
2021/12/11 06:54:50;;;;;;;41.60;24.00;;;;;;;;;;5115657;28;20040;-78
2021/12/11 06:57:17;;;;;;;39.58;22.73;;;;;;;;;;5116100;28;20542;-79
2021/12/11 06:59:44;;;;;;;37.90;22.63;;;;;;;;;;5123881;27;20063;-77
2021/12/11 07:02:10;;;;;;;35.60;21.38;;;;;;;;;;5123932;27;20050;-78
2021/12/11 07:04:36;;;;;;;37.20;22.17;;;;;;;;;;5107904;27;20078;-78
2021/12/11 07:07:03;;;;;;;37.92;22.83;;;;;;;;;;5133826;27;20134;-78
2021/12/11 07:09:29;;;;;;;46.47;24.33;;;;;;;;;;5136370;27;20055;-78
2021/12/11 07:11:56;;;;;;;42.22;22.85;;;;;;;;;;5093735;28;20036;-78
2021/12/11 07:14:25;;;;;;;39.22;21.98;;;;;;;;;;5095894;28;20043;-77
2021/12/11 07:16:51;;;;;;;44.10;24.23;;;;;;;;;;5105715;27;20456;-77
2021/12/11 07:19:18;;;;;;;43.90;25.10;;;;;;;;;;5119847;27;20031;-77
2021/12/11 07:21:44;;;;;;;42.60;23.60;;;;;;;;;;5122433;27;20039;-77
2021/12/11 07:24:13;;;;;;;44.53;25.20;;;;;;;;;;5107987;27;20543;-77
2021/12/11 07:26:39;;;;;;;44.05;25.50;;;;;;;;;;5109217;27;20475;-76
2021/12/11 07:29:10;;;;;;;44.72;24.42;;;;;;;;;;5126944;27;20035;-77
2021/12/11 07:31:37;;;;;;;50.65;26.40;;;;;;;;;;5096240;28;20039;-78
2021/12/11 07:34:04;;;;;;;44.47;24.98;;;;;;;;;;5130580;27;20039;-76
2021/12/11 07:36:30;;;;;;;44.40;25.23;;;;;;;;;;5112483;27;20043;-78
2021/12/11 07:38:57;;;;;;;46.13;25.70;;;;;;;;;;5119851;27;20074;-77
2021/12/11 07:41:24;;;;;;;46.90;25.85;;;;;;;;;;5100257;27;20055;-78
2021/12/11 07:43:50;;;;;;;50.92;27.00;;;;;;;;;;5096791;28;20048;-78
2021/12/11 07:46:20;;;;;;;46.00;25.88;;;;;;;;;;5114427;27;20118;-78
2021/12/11 07:48:46;;;;;;;47.00;25.52;;;;;;;;;;5095898;28;20043;-77
2021/12/11 07:51:13;;;;;;;50.90;27.58;;;;;;;;;;5104318;27;20047;-78
2021/12/11 07:53:39;;;;;;;44.35;25.48;;;;;;;;;;5096974;28;20051;-78
2021/12/11 07:56:06;;;;;;;46.28;26.10;;;;;;;;;;5114524;27;20100;-78
2021/12/11 07:58:34;;;;;;;43.35;26.25;;;;;;;;;;5114348;28;20510;-78
2021/12/11 08:01:00;;;;;;;46.05;25.65;;;;;;;;;;5100532;27;20480;-78
2021/12/11 08:03:27;;;;;;;49.30;27.00;;;;;;;;;;5113407;27;20053;-78
2021/12/11 08:05:53;;;;;;;48.88;26.67;;;;;;;;;;5133913;27;20107;-77
2021/12/11 08:08:20;;;;;;;46.88;25.80;;;;;;;;;;5132593;27;20047;-79
2021/12/11 08:10:48;;;;;;;43.85;25.17;;;;;;;;;;5094664;28;20070;-78
2021/12/11 08:13:15;;;;;;;50.47;27.17;;;;;;;;;;5114858;28;20047;-77
2021/12/11 08:15:42;;;;;;;43.08;26.10;;;;;;;;;;5113933;28;20127;-78
2021/12/11 08:18:09;;;;;;;46.13;25.65;;;;;;;;;;5113806;28;20043;-78
2021/12/11 08:20:37;;;;;;;53.63;28.27;;;;;;;;;;5113868;28;20073;-78
2021/12/11 08:23:04;;;;;;;57.85;29.83;;;;;;;;;;5114103;28;20392;-78
2021/12/11 08:25:31;;;;;;;54.55;28.60;;;;;;;;;;5114358;28;20080;-78
2021/12/11 08:27:57;;;;;;;48.17;27.58;;;;;;;;;;5118006;27;20043;-78
2021/12/11 08:30:24;;;;;;;49.50;27.42;;;;;;;;;;5134406;27;20426;-77
2021/12/11 08:32:51;;;;;;;52.08;30.63;;;;;;;;;;5134623;27;20039;-79
2021/12/11 08:35:17;;;;;;;60.38;33.35;;;;;;;;;;5134861;27;20115;-79
2021/12/11 08:37:45;;;;;;;57.92;32.10;;;;;;;;;;5134673;27;20126;-78
2021/12/11 08:40:13;;;;;;;61.17;33.55;;;;;;;;;;5134515;27;20544;-79
2021/12/11 08:42:39;;;;;;;59.38;32.85;;;;;;;;;;5115486;27;20495;-78
2021/12/11 08:45:11;;;;;;;50.33;29.55;;;;;;;;;;5116140;27;20472;-78
2021/12/11 08:47:39;;;;;;;47.13;27.92;;;;;;;;;;5134630;27;20102;-77
2021/12/11 08:50:06;;;;;;;63.95;33.08;;;;;;;;;;5134620;27;20050;-78
2021/12/11 08:52:35;;;;;;;54.95;31.80;;;;;;;;;;5134459;27;20357;-78
2021/12/11 08:55:01;;;;;;;61.63;31.95;;;;;;;;;;5115793;27;20047;-78
2021/12/11 08:57:30;;;;;;;51.88;31.00;;;;;;;;;;5134302;27;20050;-78
2021/12/11 09:00:05;;;;;;;52.30;29.90;;;;;;;;;;5134431;27;20490;-79
2021/12/11 09:02:35;;;;;;;52.80;30.58;;;;;;;;;;5134168;27;20050;-77
2021/12/11 09:05:07;;;;;;;58.00;33.63;;;;;;;;;;5115874;27;20460;-78
2021/12/11 09:07:36;;;;;;;57.78;33.55;;;;;;;;;;5133998;27;20051;-79
2021/12/11 09:10:14;;;;;;;52.40;30.65;;;;;;;;;;5133870;27;20495;-79
2021/12/11 09:12:43;;;;;;;50.20;29.33;;;;;;;;;;5116203;27;20042;-78
2021/12/11 09:15:25;;;;;;;57.72;32.70;;;;;;;;;;5134123;27;20043;-78
2021/12/11 09:17:55;;;;;;;56.20;32.63;;;;;;;;;;5134114;27;20082;-78
2021/12/11 09:20:35;;;;;;;55.83;32.42;;;;;;;;;;5133902;27;20093;-78
2021/12/11 09:23:26;;;;;;;54.83;31.55;;;;;;;;;;5115813;27;20051;-78
2021/12/11 09:25:55;;;;;;;53.50;30.15;;;;;;;;;;5133926;27;20138;-78
2021/12/11 09:28:27;;;;;;;59.95;34.83;;;;;;;;;;5115735;27;20519;-79
2021/12/11 09:30:57;;;;;;;54.25;32.13;;;;;;;;;;5133583;27;20042;-79
2021/12/11 09:33:37;;;;;;;56.05;31.95;;;;;;;;;;5133920;27;20186;-79
2021/12/11 09:36:06;;;;;;;51.08;30.45;;;;;;;;;;5133823;27;20039;-78
2021/12/11 09:38:38;;;;;;;52.60;31.23;;;;;;;;;;5115658;27;20047;-78
2021/12/11 09:41:20;;;;;;;49.08;30.55;;;;;;;;;;5115162;27;20122;-79
2021/12/11 09:43:48;;;;;;;60.15;33.08;;;;;;;;;;5115673;27;20050;-79
2021/12/11 09:46:15;;;;;;;57.95;33.78;;;;;;;;;;5132783;27;20043;-80
2021/12/11 09:48:42;;;;;;;57.88;35.00;;;;;;;;;;5115339;28;20043;-79
2021/12/11 09:51:12;;;;;;;62.70;36.70;;;;;;;;;;5133458;28;20507;-79
2021/12/11 09:53:41;;;;;;;61.78;35.70;;;;;;;;;;5116877;27;20498;-79
2021/12/11 09:56:14;;;;;;;57.92;33.88;;;;;;;;;;5137490;27;20531;-78
2021/12/11 09:58:42;;;;;;;58.55;36.72;;;;;;;;;;5137740;27;20035;-78
2021/12/11 10:01:08;;;;;;;56.10;34.15;;;;;;;;;;5137728;27;20039;-79
2021/12/11 10:03:39;;;;;;;61.83;37.50;;;;;;;;;;5137465;27;20143;-79
2021/12/11 10:06:15;;;;;;;57.75;35.75;;;;;;;;;;5137323;27;20117;-80
2021/12/11 10:08:45;;;;;;;59.35;36.30;;;;;;;;;;5137446;27;20047;-79
2021/12/11 10:11:23;;;;;;;48.42;33.08;;;;;;;;;;5137737;27;20373;-80
2021/12/11 10:13:54;;;;;;;49.05;32.88;;;;;;;;;;5137488;27;20039;-79
2021/12/11 10:16:21;;;;;;;56.60;34.38;;;;;;;;;;5137474;27;20163;-80
2021/12/11 10:18:50;;;;;;;57.63;37.10;;;;;;;;;;5102136;27;20097;-79
2021/12/11 10:21:27;;;;;;;54.42;35.10;;;;;;;;;;5119250;27;20117;-77
2021/12/11 10:23:55;;;;;;;61.67;36.17;;;;;;;;;;5118993;27;20498;-79
2021/12/11 10:26:23;;;;;;;60.35;36.28;;;;;;;;;;5101990;27;20072;-78
2021/12/11 10:28:51;;;;;;;53.72;34.70;;;;;;;;;;5137277;27;20079;-79
2021/12/11 10:31:27;;;;;;;54.25;35.17;;;;;;;;;;5118789;27;20081;-78
2021/12/11 10:33:54;;;;;;;57.50;34.78;;;;;;;;;;5137167;27;20050;-79
2021/12/11 10:36:25;;;;;;;56.17;34.58;;;;;;;;;;5137119;27;20039;-79
2021/12/11 10:38:52;;;;;;;56.05;35.50;;;;;;;;;;5137047;27;20047;-80
2021/12/11 10:41:19;;;;;;;52.40;32.38;;;;;;;;;;5136894;27;20090;-79
2021/12/11 10:43:53;;;;;;;49.15;32.95;;;;;;;;;;5118459;27;20099;-78
2021/12/11 10:46:21;;;;;;;51.83;34.03;;;;;;;;;;5136707;27;20101;-78
2021/12/11 10:48:47;;;;;;;51.10;34.50;;;;;;;;;;5136965;27;20046;-78
2021/12/11 10:51:19;;;;;;;54.70;35.08;;;;;;;;;;5136658;27;20103;-80
2021/12/11 10:53:46;;;;;;;;;;;;;;;;;;5118883;27;20082;-79
2021/12/11 10:56:14;;;;;;;51.08;33.63;;;;;;;;;;5136740;27;20480;-79
2021/12/11 10:58:42;;;;;;;54.03;33.92;;;;;;;;;;5136617;27;20043;-78
2021/12/11 11:01:11;;;;;;;61.03;37.03;;;;;;;;;;5118497;27;20043;-78
2021/12/11 11:03:39;;;;;;;49.42;32.72;;;;;;;;;;5136584;27;20047;-78
2021/12/11 11:06:06;;;;;;;56.92;35.45;;;;;;;;;;5135525;27;20054;-78
2021/12/11 11:08:32;;;;;;;48.40;32.72;;;;;;;;;;5136468;27;20050;-78
2021/12/11 11:11:01;;;;;;;54.05;32.53;;;;;;;;;;5136336;27;20042;-79
2021/12/11 11:13:27;;;;;;;54.50;34.60;;;;;;;;;;5118194;27;20050;-79
2021/12/11 11:15:54;;;;;;;52.22;32.42;;;;;;;;;;5136441;27;20068;-78
2021/12/11 11:18:22;;;;;;;49.55;30.63;;;;;;;;;;5136351;27;20043;-78
2021/12/11 11:21:09;;;;;;;50.33;32.33;;;;;;;;;;5136186;27;20087;-78
2021/12/11 11:23:35;;;;;;;46.65;30.38;;;;;;;;;;5117348;27;20087;-77
2021/12/11 11:26:05;;;;;;;46.92;29.92;;;;;;;;;;5136372;27;20131;-78
2021/12/11 11:28:33;;;;;;;50.67;32.40;;;;;;;;;;5118109;27;20433;-79
2021/12/11 11:31:01;;;;;;;47.70;30.77;;;;;;;;;;5136097;27;20396;-77
2021/12/11 11:33:27;;;;;;;47.10;30.58;;;;;;;;;;5135752;27;20388;-78
2021/12/11 11:35:54;;;;;;;53.53;32.65;;;;;;;;;;5135720;27;20118;-77
2021/12/11 11:38:23;;;;;;;48.03;31.42;;;;;;;;;;5136078;27;20045;-78
2021/12/11 11:40:53;;;;;;;47.15;31.38;;;;;;;;;;5117053;27;20117;-78
2021/12/11 11:43:20;;;;;;;51.67;32.72;;;;;;;;;;5135761;27;20043;-78
2021/12/11 11:45:52;;;;;;;47.50;31.48;;;;;;;;;;5135938;27;20092;-78
2021/12/11 11:48:19;;;;;;;51.20;33.45;;;;;;;;;;5135588;27;20163;-78
2021/12/11 11:50:46;;;;;;;52.35;33.47;;;;;;;;;;5135477;27;20042;-78
2021/12/11 11:53:12;;;;;;;55.03;30.52;;;;;;;;;;5135739;27;20042;-78
2021/12/11 11:55:45;;;;;;;46.58;32.45;;;;;;;;;;5135581;27;20079;-77
2021/12/11 11:58:11;;;;;;;54.55;35.17;;;;;;;;;;5135537;27;20043;-78
2021/12/11 12:00:43;;;;;;;50.47;32.70;;;;;;;;;;5135386;27;20050;-79
2021/12/11 12:03:10;;;;;;;53.60;32.58;;;;;;;;;;5135040;27;20078;-79
2021/12/11 12:05:37;;;;;;;50.30;31.80;;;;;;;;;;5116906;27;20046;-78
2021/12/11 12:08:05;;;;;;;50.15;33.60;;;;;;;;;;5113179;28;20055;-79
2021/12/11 12:10:31;;;;;;;51.42;33.80;;;;;;;;;;5114528;28;20077;-79
2021/12/11 12:12:57;;;;;;;51.05;33.35;;;;;;;;;;5114591;28;20455;-79
2021/12/11 12:15:28;;;;;;;54.97;33.80;;;;;;;;;;5113431;28;20055;-79
2021/12/11 12:17:55;;;;;;;49.08;33.30;;;;;;;;;;5113426;28;20473;-78
2021/12/11 12:20:22;;;;;;;48.30;32.78;;;;;;;;;;5113299;28;20043;-72
2021/12/11 12:22:50;;;;;;;52.00;32.25;;;;;;;;;;5113193;28;20043;-74
2021/12/11 12:25:16;;;;;;;55.92;33.47;;;;;;;;;;5114452;28;20126;-72
2021/12/11 12:27:43;;;;;;;48.72;31.27;;;;;;;;;;5114241;28;20057;-72
2021/12/11 12:30:19;;;;;;;49.97;32.38;;;;;;;;;;5112976;28;20052;-72
2021/12/11 12:32:47;;;;;;;57.70;34.28;;;;;;;;;;5114385;27;20035;-72
2021/12/11 12:35:14;;;;;;;53.78;32.42;;;;;;;;;;5112886;28;20043;-72
2021/12/11 12:37:42;;;;;;;51.40;32.35;;;;;;;;;;5113104;28;20043;-72
2021/12/11 12:40:11;;;;;;;53.03;33.45;;;;;;;;;;5113090;28;20094;-72
2021/12/11 12:42:41;;;;;;;51.85;33.30;;;;;;;;;;5112501;28;20392;-72
2021/12/11 12:45:07;;;;;;;52.22;32.65;;;;;;;;;;5112698;28;20442;-77
2021/12/11 12:47:35;;;;;;;48.70;31.90;;;;;;;;;;5113801;27;20130;-78
2021/12/11 12:50:06;;;;;;;53.42;33.13;;;;;;;;;;5114039;28;20040;-78
2021/12/11 12:52:34;;;;;;;51.85;35.47;;;;;;;;;;5113716;28;20504;-78
2021/12/11 12:55:03;;;;;;;47.78;32.45;;;;;;;;;;5113510;28;20165;-79
2021/12/11 12:57:32;;;;;;;49.45;33.08;;;;;;;;;;5112493;28;20046;-79
2021/12/11 13:00:18;;;;;;;48.03;32.72;;;;;;;;;;5113655;28;20122;-77
2021/12/11 13:02:44;;;;;;;50.80;33.85;;;;;;;;;;5095337;28;20487;-78
2021/12/11 13:05:13;;;;;;;48.70;33.05;;;;;;;;;;5113588;28;20123;-77
2021/12/11 13:07:40;;;;;;;49.83;33.45;;;;;;;;;;5126442;27;20095;-78
2021/12/11 13:10:09;;;;;;;52.15;34.45;;;;;;;;;;5115854;27;20047;-79
2021/12/11 13:12:39;;;;;;;53.38;33.47;;;;;;;;;;5115761;27;20047;-78
2021/12/11 13:15:19;;;;;;;46.63;33.30;;;;;;;;;;5133575;27;20039;-78
2021/12/11 13:17:49;;;;;;;46.97;32.80;;;;;;;;;;5115615;27;20085;-78
2021/12/11 13:20:41;;;;;;;50.85;32.92;;;;;;;;;;5133752;27;20127;-79
2021/12/11 13:23:08;;;;;;;49.40;32.58;;;;;;;;;;5110808;27;20474;-79
2021/12/11 13:25:43;;;;;;;45.92;31.60;;;;;;;;;;5133764;27;20095;-78
2021/12/11 13:28:10;;;;;;;46.88;30.52;;;;;;;;;;5133289;27;20368;-79
2021/12/11 13:30:41;;;;;;;41.95;29.38;;;;;;;;;;5115226;27;20047;-78
2021/12/11 13:33:08;;;;;;;48.38;30.48;;;;;;;;;;5133964;27;20057;-78
2021/12/11 13:35:37;;;;;;;46.97;31.02;;;;;;;;;;5115377;28;20184;-78
2021/12/11 13:38:05;;;;;;;47.92;29.33;;;;;;;;;;5115399;27;20047;-78
2021/12/11 13:40:32;;;;;;;45.53;29.10;;;;;;;;;;5115484;27;20043;-78
2021/12/11 13:42:58;;;;;;;43.95;30.23;;;;;;;;;;5133432;27;20035;-77
2021/12/11 13:45:28;;;;;;;44.95;29.98;;;;;;;;;;5114935;27;20084;-78
2021/12/11 13:47:55;;;;;;;45.33;29.08;;;;;;;;;;5115242;27;20081;-78
2021/12/11 13:50:30;;;;;;;43.60;28.85;;;;;;;;;;5115211;28;20081;-78
2021/12/11 13:52:56;;;;;;;41.53;28.67;;;;;;;;;;5114112;28;20384;-78
2021/12/11 13:55:23;;;;;;;43.55;26.75;;;;;;;;;;5133103;28;20047;-78
2021/12/11 13:57:50;;;;;;;41.70;27.02;;;;;;;;;;5133149;28;20085;-79
2021/12/11 14:00:24;;;;;;;42.85;27.25;;;;;;;;;;5098477;28;20161;-78
2021/12/11 14:02:51;;;;;;;41.85;28.60;;;;;;;;;;5114996;28;20047;-77
2021/12/11 14:05:17;;;;;;;42.58;28.40;;;;;;;;;;5133553;28;20095;-78
2021/12/11 14:07:43;;;;;;;45.47;27.50;;;;;;;;;;5133103;28;20421;-79
2021/12/11 14:10:19;;;;;;;42.88;28.00;;;;;;;;;;5114889;28;20484;-78
2021/12/11 14:12:46;;;;;;;44.10;28.45;;;;;;;;;;5133364;28;20451;-79
2021/12/11 14:15:12;;;;;;;47.33;28.95;;;;;;;;;;5115337;28;20050;-78
2021/12/11 14:17:38;;;;;;;48.95;29.27;;;;;;;;;;5133457;28;20038;-79
2021/12/11 14:20:05;;;;;;;54.38;31.23;;;;;;;;;;5133195;28;20126;-78
2021/12/11 14:22:34;;;;;;;55.08;33.72;;;;;;;;;;5133081;28;20043;-78
2021/12/11 14:25:00;;;;;;;57.67;33.22;;;;;;;;;;5115247;28;20460;-77
2021/12/11 14:27:26;;;;;;;59.17;33.58;;;;;;;;;;5133337;28;20050;-79
2021/12/11 14:29:55;;;;;;;58.88;33.22;;;;;;;;;;5115174;28;20126;-78
2021/12/11 14:32:26;;;;;;;56.28;33.10;;;;;;;;;;5133268;28;20035;-78
2021/12/11 14:34:52;;;;;;;;;;;;;;;;;;5115231;28;20096;-78
2021/12/11 14:37:18;;;;;;;57.30;34.20;;;;;;;;;;5114732;28;20360;-79
2021/12/11 14:39:47;;;;;;;59.75;33.65;;;;;;;;;;5133123;27;20043;-79
2021/12/11 14:42:15;;;;;;;57.28;34.85;;;;;;;;;;5136714;27;20058;-80
2021/12/11 14:44:41;;;;;;;58.25;36.78;;;;;;;;;;5118659;27;20050;-79
2021/12/11 14:47:09;;;;;;;58.28;36.00;;;;;;;;;;5136831;27;20043;-78